createdAt,value
2023-12-12T00:00:21.559Z,-0.70
2023-12-12T00:02:48.491Z,-0.60
2023-12-12T00:05:15.544Z,-0.70
2023-12-12T00:07:42.834Z,-0.70
2023-12-12T00:10:10.088Z,-0.60
2023-12-12T00:12:37.079Z,-0.70
2023-12-12T00:15:04.451Z,-0.80
2023-12-12T00:17:31.763Z,-0.80
2023-12-12T00:19:59.661Z,-0.80
2023-12-12T00:22:27.596Z,-0.70
2023-12-12T00:24:54.833Z,-0.70
2023-12-12T00:27:21.854Z,-0.70
2023-12-12T00:29:49.017Z,-0.70
2023-12-12T00:32:16.030Z,-0.70
2023-12-12T00:34:43.065Z,-0.80
2023-12-12T00:37:11.036Z,-0.80
2023-12-12T00:39:39.343Z,-0.80
2023-12-12T00:42:06.893Z,-0.80
2023-12-12T00:44:37.013Z,-0.80
2023-12-12T00:47:06.310Z,-0.80
2023-12-12T00:49:33.570Z,-0.80
2023-12-12T00:52:00.846Z,-0.80
2023-12-12T00:54:27.933Z,-0.70
2023-12-12T00:56:54.900Z,-0.70
2023-12-12T00:59:21.855Z,-0.70
2023-12-12T01:01:48.992Z,-0.70
2023-12-12T01:04:16.445Z,-0.80
2023-12-12T01:06:43.508Z,-0.80
2023-12-12T01:09:10.592Z,-0.90
2023-12-12T01:11:37.549Z,-0.90
2023-12-12T01:14:04.518Z,-0.90
2023-12-12T01:16:31.549Z,-0.90
2023-12-12T01:18:58.717Z,-0.90
2023-12-12T01:21:25.880Z,-0.90
2023-12-12T01:23:53.699Z,-0.80
2023-12-12T01:26:21.754Z,-0.80
2023-12-12T01:28:48.956Z,-0.80
2023-12-12T01:31:16.955Z,-0.70
2023-12-12T01:33:44.421Z,-0.70
2023-12-12T01:36:12.109Z,-0.70
2023-12-12T01:38:39.178Z,-0.70
2023-12-12T01:41:06.539Z,-0.70
2023-12-12T01:43:34.211Z,-0.80
2023-12-12T01:46:03.490Z,-0.80
2023-12-12T01:48:31.527Z,-0.80
2023-12-12T01:50:58.684Z,-0.80
2023-12-12T01:53:38.435Z,-0.90
2023-12-12T01:56:07.210Z,-0.80
2023-12-12T01:58:36.674Z,-0.80
2023-12-12T02:01:04.956Z,-0.70
2023-12-12T02:03:35.813Z,-0.70
2023-12-12T02:06:03.621Z,-0.60
2023-12-12T02:08:30.873Z,-0.70
2023-12-12T02:10:58.574Z,-0.70
2023-12-12T02:13:25.606Z,-0.80
2023-12-12T02:15:52.869Z,-0.80
2023-12-12T02:18:19.923Z,-0.80
2023-12-12T02:20:46.969Z,-0.80
2023-12-12T02:23:13.985Z,-0.80
2023-12-12T02:25:41.531Z,-0.80
2023-12-12T02:28:11.586Z,-0.80
2023-12-12T02:30:39.565Z,-0.80
2023-12-12T02:33:06.677Z,-0.80
2023-12-12T02:35:33.981Z,-0.80
2023-12-12T02:38:01.006Z,-0.80
2023-12-12T02:40:27.997Z,-0.80
2023-12-12T02:42:55.113Z,-0.80
2023-12-12T02:45:22.155Z,-0.80
2023-12-12T02:47:49.174Z,-0.80
2023-12-12T02:50:16.203Z,-0.80
2023-12-12T02:52:43.301Z,-0.80
2023-12-12T02:55:10.453Z,-0.80
2023-12-12T02:57:37.597Z,-0.70
2023-12-12T03:00:06.794Z,-0.80
2023-12-12T03:02:36.978Z,-0.80
2023-12-12T03:05:06.052Z,-0.80
2023-12-12T03:07:33.560Z,-0.70
2023-12-12T03:10:01.016Z,-0.80
2023-12-12T03:12:28.075Z,-0.80
2023-12-12T03:14:55.251Z,-0.80
2023-12-12T03:17:22.235Z,-0.80
2023-12-12T03:19:49.341Z,-0.80
2023-12-12T03:22:16.400Z,-0.80
2023-12-12T03:24:43.413Z,-0.80
2023-12-12T03:27:10.348Z,-0.80
2023-12-12T03:29:37.498Z,-0.80
2023-12-12T03:32:04.851Z,-0.80
2023-12-12T03:34:31.847Z,-0.80
2023-12-12T03:36:58.971Z,-0.70
2023-12-12T03:39:25.980Z,-0.70
2023-12-12T03:41:53.005Z,-0.70
2023-12-12T03:44:20.022Z,-0.60
2023-12-12T03:46:47.590Z,-0.70
2023-12-12T03:49:14.730Z,-0.70
2023-12-12T03:51:41.823Z,-0.70
2023-12-12T03:54:10.319Z,-0.70
2023-12-12T03:56:37.345Z,-0.80
2023-12-12T03:59:04.402Z,-0.80
2023-12-12T04:01:32.937Z,-0.80
2023-12-12T04:04:00.072Z,-0.90
2023-12-12T04:06:27.314Z,-0.80
2023-12-12T04:08:54.270Z,-0.70
2023-12-12T04:11:21.327Z,-0.70
2023-12-12T04:13:48.477Z,-0.70
2023-12-12T04:16:15.456Z,-0.70
2023-12-12T04:18:42.609Z,-0.60
2023-12-12T04:21:09.964Z,-0.70
2023-12-12T04:23:39.859Z,-0.70
2023-12-12T04:26:07.035Z,-0.80
2023-12-12T04:28:34.231Z,-0.80
2023-12-12T04:31:01.289Z,-0.80
2023-12-12T04:33:28.258Z,-0.90
2023-12-12T04:35:55.265Z,-0.90
2023-12-12T04:38:22.222Z,-0.90
2023-12-12T04:40:49.305Z,-1.00
2023-12-12T04:43:16.369Z,-1.00
2023-12-12T04:45:43.414Z,-1.00
2023-12-12T04:48:10.633Z,-1.00
2023-12-12T04:50:37.901Z,-0.90
2023-12-12T04:53:04.881Z,-0.90
2023-12-12T04:55:31.920Z,-0.90
2023-12-12T04:57:58.956Z,-0.90
2023-12-12T05:00:25.987Z,-0.90
2023-12-12T05:02:52.967Z,-0.90
2023-12-12T05:05:20.030Z,-0.90
2023-12-12T05:07:47.199Z,-0.90
2023-12-12T05:10:14.453Z,-0.90
2023-12-12T05:12:41.551Z,-0.90
2023-12-12T05:15:10.166Z,-0.90
2023-12-12T05:17:37.653Z,-0.90
2023-12-12T05:20:06.796Z,-0.90
2023-12-12T05:22:35.796Z,-1.00
2023-12-12T05:25:02.902Z,-1.00
2023-12-12T05:27:30.176Z,-1.00
2023-12-12T05:29:57.280Z,-1.00
2023-12-12T05:32:24.319Z,-1.00
2023-12-12T05:34:51.512Z,-1.00
2023-12-12T05:37:18.512Z,-1.00
2023-12-12T05:39:45.555Z,-1.00
2023-12-12T05:42:12.513Z,-0.90
2023-12-12T05:44:39.573Z,-0.90
2023-12-12T05:47:06.550Z,-0.90
2023-12-12T05:49:33.696Z,-0.90
2023-12-12T05:52:04.856Z,-0.80
2023-12-12T05:54:31.955Z,-0.80
2023-12-12T05:56:58.961Z,-0.70
2023-12-12T05:59:26.139Z,-0.80
2023-12-12T06:01:53.149Z,-0.80
2023-12-12T06:04:20.388Z,-0.70
2023-12-12T06:06:47.614Z,-0.80
2023-12-12T06:09:15.298Z,-0.80
2023-12-12T06:11:43.443Z,-0.80
2023-12-12T06:14:10.608Z,-0.90
2023-12-12T06:16:39.335Z,-0.90
2023-12-12T06:19:07.267Z,-1.00
2023-12-12T06:21:35.079Z,-0.90
2023-12-12T06:24:03.286Z,-0.90
2023-12-12T06:26:31.131Z,-0.90
2023-12-12T06:28:58.159Z,-0.90
2023-12-12T06:31:25.366Z,-0.80
2023-12-12T06:33:53.832Z,-0.70
2023-12-12T06:36:21.464Z,-0.70
2023-12-12T06:38:48.729Z,-0.70
2023-12-12T06:41:15.807Z,-0.70
2023-12-12T06:43:44.339Z,-0.70
2023-12-12T06:46:11.912Z,-0.80
2023-12-12T06:48:39.971Z,-0.80
2023-12-12T06:51:07.796Z,-0.90
2023-12-12T06:53:34.876Z,-0.90
2023-12-12T06:56:02.102Z,-0.90
2023-12-12T06:58:29.248Z,-0.90
2023-12-12T07:00:56.783Z,-1.00
2023-12-12T07:03:23.957Z,-1.00
2023-12-12T07:05:53.950Z,-1.00
2023-12-12T07:08:22.245Z,-1.00
2023-12-12T07:10:50.858Z,-1.00
2023-12-12T07:16:02.374Z,-1.00
2023-12-12T07:18:29.550Z,-0.90
2023-12-12T07:20:56.657Z,-0.90
2023-12-12T07:23:23.576Z,-0.80
2023-12-12T07:25:50.765Z,-0.90
2023-12-12T07:28:18.233Z,-0.80
2023-12-12T07:30:46.097Z,-0.80
2023-12-12T07:33:14.156Z,-0.80
2023-12-12T07:35:41.086Z,-0.80
2023-12-12T07:38:08.491Z,-0.90
2023-12-12T07:40:35.546Z,-0.90
2023-12-12T07:43:02.600Z,-0.90
2023-12-12T07:45:29.615Z,-0.90
2023-12-12T07:47:56.727Z,-1.00
2023-12-12T07:50:23.721Z,-0.90
2023-12-12T07:52:50.974Z,-1.00
2023-12-12T07:55:21.159Z,-1.00
2023-12-12T07:57:48.295Z,-1.00
2023-12-12T08:00:15.794Z,-0.90
2023-12-12T08:02:43.934Z,-0.90
2023-12-12T08:05:11.123Z,-0.90
2023-12-12T08:07:38.203Z,-0.90
2023-12-12T08:10:07.269Z,-1.00
2023-12-12T08:12:34.362Z,-1.00
2023-12-12T08:15:01.345Z,-0.90
2023-12-12T08:17:28.366Z,-0.90
2023-12-12T08:19:55.500Z,-0.90
2023-12-12T08:22:22.941Z,-0.90
2023-12-12T08:24:52.006Z,-0.90
2023-12-12T08:27:21.750Z,-0.90
2023-12-12T08:29:49.484Z,-0.90
2023-12-12T08:32:17.326Z,-0.90
2023-12-12T08:34:44.431Z,-0.80
2023-12-12T08:37:11.521Z,-0.80
2023-12-12T08:39:40.095Z,-0.80
2023-12-12T08:42:07.331Z,-0.80
2023-12-12T08:44:34.424Z,-0.80
2023-12-12T08:47:01.390Z,-0.80
2023-12-12T08:49:28.546Z,-0.80
2023-12-12T08:51:55.766Z,-0.80
2023-12-12T08:54:22.870Z,-0.80
2023-12-12T08:56:54.441Z,-0.80
2023-12-12T08:59:24.763Z,-0.80
2023-12-12T09:01:51.930Z,-0.90
2023-12-12T09:04:19.096Z,-0.90
2023-12-12T09:06:46.956Z,-0.90
2023-12-12T09:09:14.523Z,-0.90
2023-12-12T09:11:41.796Z,-0.90
2023-12-12T09:14:09.041Z,-0.80
2023-12-12T09:16:36.376Z,-0.70
2023-12-12T09:19:03.656Z,-0.70
2023-12-12T09:21:30.995Z,-0.70
2023-12-12T09:23:58.095Z,-0.70
2023-12-12T09:26:25.125Z,-0.70
2023-12-12T09:28:52.069Z,-0.70
2023-12-12T09:31:27.759Z,-0.70
2023-12-12T09:33:56.068Z,-0.70
2023-12-12T09:36:23.463Z,-0.70
2023-12-12T09:38:50.600Z,-0.70
2023-12-12T09:41:23.460Z,-0.70
2023-12-12T09:43:51.962Z,-0.80
2023-12-12T09:46:21.170Z,-0.80
2023-12-12T09:48:52.109Z,-0.80
2023-12-12T09:51:19.458Z,-0.80
2023-12-12T09:53:49.691Z,-0.80
2023-12-12T09:56:18.439Z,-0.80
2023-12-12T09:58:50.156Z,-0.70
2023-12-12T10:01:18.535Z,-0.70
2023-12-12T10:03:46.153Z,-0.70
2023-12-12T10:06:14.194Z,-0.70
2023-12-12T10:08:41.410Z,-0.60
2023-12-12T10:11:10.406Z,-0.60
2023-12-12T10:13:57.623Z,-0.60
2023-12-12T10:16:27.257Z,-0.60
2023-12-12T10:18:56.136Z,-0.60
2023-12-12T10:21:24.279Z,-0.50
2023-12-12T10:23:52.952Z,-0.40
2023-12-12T10:26:33.351Z,-0.40
2023-12-12T10:29:01.510Z,-0.40
2023-12-12T10:31:29.469Z,-0.40
2023-12-12T10:33:58.500Z,-0.40
2023-12-12T10:36:26.222Z,-0.40
2023-12-12T10:38:54.922Z,-0.40
2023-12-12T10:41:25.542Z,-0.30
2023-12-12T10:43:54.386Z,-0.30
2023-12-12T10:46:22.244Z,-0.30
2023-12-12T10:48:50.757Z,-0.30
2023-12-12T10:51:19.092Z,-0.30
2023-12-12T10:53:48.010Z,-0.30
2023-12-12T10:56:16.120Z,-0.30
2023-12-12T10:58:43.785Z,-0.30
2023-12-12T11:01:11.847Z,-0.30
2023-12-12T11:03:39.745Z,-0.30
2023-12-12T11:06:07.276Z,-0.30
2023-12-12T11:08:34.776Z,-0.30
2023-12-12T11:11:09.463Z,-0.30
2023-12-12T11:13:40.021Z,-0.40
2023-12-12T11:16:09.583Z,-0.40
2023-12-12T11:18:38.837Z,-0.50
2023-12-12T11:21:06.237Z,-0.50
2023-12-12T11:23:55.767Z,-0.50
2023-12-12T11:26:26.568Z,-0.50
2023-12-12T11:28:57.008Z,-0.60
2023-12-12T11:31:28.915Z,-0.50
2023-12-12T11:34:12.341Z,-0.60
2023-12-12T11:37:00.355Z,-0.50
2023-12-12T11:39:32.143Z,-0.50
2023-12-12T11:42:00.539Z,-0.50
2023-12-12T11:44:46.876Z,-0.50
2023-12-12T11:47:16.118Z,-0.50
2023-12-12T11:49:45.416Z,-0.50
2023-12-12T11:52:32.666Z,-0.50
2023-12-12T11:54:59.886Z,-0.50
2023-12-12T11:57:26.968Z,-0.50
2023-12-12T11:59:54.049Z,-0.50
2023-12-12T12:02:21.111Z,-0.50
2023-12-12T12:04:48.092Z,-0.60
2023-12-12T12:07:15.072Z,-0.50
2023-12-12T12:09:42.916Z,-0.50
2023-12-12T12:12:13.280Z,-0.50
2023-12-12T12:14:40.369Z,-0.50
2023-12-12T12:17:07.405Z,-0.50
2023-12-12T12:19:35.966Z,-0.60
2023-12-12T12:22:10.588Z,-0.60
2023-12-12T12:24:45.694Z,-0.70
2023-12-12T12:27:14.007Z,-0.70
2023-12-12T12:29:41.176Z,-0.70
2023-12-12T12:32:18.250Z,-0.70
2023-12-12T12:34:45.706Z,-0.70
2023-12-12T12:37:35.375Z,-0.60
2023-12-12T12:40:07.341Z,-0.70
2023-12-12T12:42:39.370Z,-0.60
2023-12-12T12:45:08.515Z,-0.60
2023-12-12T12:47:36.410Z,-0.70
2023-12-12T12:50:03.848Z,-0.60
2023-12-12T12:52:31.336Z,-0.60
2023-12-12T12:54:58.850Z,-0.60
2023-12-12T12:57:26.914Z,-0.60
2023-12-12T12:59:53.849Z,-0.70
2023-12-12T13:02:21.576Z,-0.80
2023-12-12T13:04:48.845Z,-0.90
2023-12-12T13:07:15.899Z,-1.00
2023-12-12T13:09:44.306Z,-0.90
2023-12-12T13:12:11.637Z,-0.90
2023-12-12T13:14:38.577Z,-0.90
2023-12-12T13:17:07.699Z,-0.80
2023-12-12T13:19:34.799Z,-0.90
2023-12-12T13:22:02.136Z,-0.90
2023-12-12T13:24:29.795Z,-0.90
2023-12-12T13:26:56.759Z,-1.00
2023-12-12T13:29:23.737Z,-1.00
2023-12-12T13:31:50.761Z,-1.00
2023-12-12T13:34:17.946Z,-1.00
2023-12-12T13:36:45.026Z,-1.00
2023-12-12T13:39:17.021Z,-1.10
2023-12-12T13:41:46.509Z,-1.00
2023-12-12T13:44:14.193Z,-1.00
2023-12-12T13:46:41.296Z,-1.00
2023-12-12T13:49:09.055Z,-1.00
2023-12-12T13:51:44.122Z,-1.00
2023-12-12T13:54:15.153Z,-1.00
2023-12-12T13:56:42.354Z,-1.10
2023-12-12T13:59:09.589Z,-1.10
2023-12-12T14:01:37.138Z,-1.10
2023-12-12T14:04:04.686Z,-1.10
2023-12-12T14:06:31.668Z,-1.20
2023-12-12T14:08:58.815Z,-1.20
2023-12-12T14:11:27.846Z,-1.20
2023-12-12T14:13:56.439Z,-1.20
2023-12-12T14:16:28.572Z,-1.20
2023-12-12T14:18:57.376Z,-1.20
2023-12-12T14:21:24.550Z,-1.20
2023-12-12T14:23:51.504Z,-1.20
2023-12-12T14:26:19.050Z,-1.30
2023-12-12T14:28:50.012Z,-1.20
2023-12-12T14:31:18.003Z,-1.30
2023-12-12T14:33:45.880Z,-1.30
2023-12-12T14:36:12.985Z,-1.30
2023-12-12T14:38:40.158Z,-1.40
2023-12-12T14:41:07.327Z,-1.40
2023-12-12T14:43:34.335Z,-1.50
2023-12-12T14:46:01.707Z,-1.50
2023-12-12T14:48:31.050Z,-1.50
2023-12-12T14:50:58.047Z,-1.50
2023-12-12T14:53:25.037Z,-1.50
2023-12-12T14:55:52.104Z,-1.50
2023-12-12T14:58:19.219Z,-1.60
2023-12-12T15:00:47.084Z,-1.60
2023-12-12T15:03:14.105Z,-1.60
2023-12-12T15:05:41.485Z,-1.60
2023-12-12T15:08:08.542Z,-1.60
2023-12-12T15:10:35.757Z,-1.50
2023-12-12T15:13:02.851Z,-1.60
2023-12-12T15:15:29.857Z,-1.50
2023-12-12T15:17:56.972Z,-1.50
2023-12-12T15:20:24.128Z,-1.50
2023-12-12T15:22:51.220Z,-1.60
2023-12-12T15:25:24.826Z,-1.60
2023-12-12T15:28:23.360Z,-1.50
2023-12-12T15:30:46.974Z,-1.50
2023-12-12T15:33:14.741Z,-1.50
2023-12-12T15:35:42.309Z,-1.50
2023-12-12T15:38:10.729Z,-1.50
2023-12-12T15:40:37.928Z,-1.50
2023-12-12T15:43:09.611Z,-1.50
2023-12-12T15:45:37.455Z,-1.50
2023-12-12T15:48:05.043Z,-1.50
2023-12-12T15:50:32.277Z,-1.50
2023-12-12T15:52:59.244Z,-1.50
2023-12-12T15:55:26.255Z,-1.50
2023-12-12T15:57:53.264Z,-1.60
2023-12-12T16:00:20.595Z,-1.60
2023-12-12T16:02:47.933Z,-1.60
2023-12-12T16:05:15.194Z,-1.70
2023-12-12T16:07:42.532Z,-1.60
2023-12-12T16:10:10.959Z,-1.70
2023-12-12T16:12:38.853Z,-1.60
2023-12-12T16:15:06.560Z,-1.70
2023-12-12T16:17:34.207Z,-1.60
2023-12-12T16:20:06.428Z,-1.60
2023-12-12T16:22:35.432Z,-1.60
2023-12-12T16:25:04.405Z,-1.60
2023-12-12T16:27:31.649Z,-1.60
2023-12-12T16:29:58.952Z,-1.50
2023-12-12T16:32:25.928Z,-1.50
2023-12-12T16:34:53.218Z,-1.40
2023-12-12T16:37:20.399Z,-1.50
2023-12-12T16:39:47.479Z,-1.50
2023-12-12T16:42:16.019Z,-1.60
2023-12-12T16:44:46.198Z,-1.60
2023-12-12T16:47:13.263Z,-1.70
2023-12-12T16:49:40.291Z,-1.70
2023-12-12T16:52:07.957Z,-1.70
2023-12-12T16:54:35.560Z,-1.60
2023-12-12T16:57:02.599Z,-1.70
2023-12-12T16:59:29.819Z,-1.70
2023-12-12T17:01:58.104Z,-1.70
2023-12-12T17:04:30.412Z,-1.70
2023-12-12T17:06:57.865Z,-1.70
2023-12-12T17:09:24.996Z,-1.70
2023-12-12T17:11:52.016Z,-1.70
2023-12-12T17:14:19.024Z,-1.80
2023-12-12T17:16:46.139Z,-1.80
2023-12-12T17:19:14.185Z,-1.80
2023-12-12T17:21:41.392Z,-1.80
2023-12-12T17:24:11.859Z,-1.90
2023-12-12T17:26:39.389Z,-1.90
2023-12-12T17:29:07.580Z,-1.80
2023-12-12T17:31:34.767Z,-1.80
2023-12-12T17:34:02.176Z,-1.90
2023-12-12T17:36:29.310Z,-1.90
2023-12-12T17:38:56.785Z,-1.90
2023-12-12T17:41:23.856Z,-1.90
2023-12-12T17:43:50.987Z,-1.90
2023-12-12T17:46:18.146Z,-1.90
2023-12-12T17:48:45.406Z,-1.90
2023-12-12T17:51:12.655Z,-1.90
2023-12-12T17:53:39.705Z,-1.90
2023-12-12T17:56:07.784Z,-1.90
2023-12-12T17:58:35.001Z,-2.00
2023-12-12T18:01:02.390Z,-1.90
2023-12-12T18:03:31.245Z,-1.90
2023-12-12T18:05:58.673Z,-1.90
2023-12-12T18:08:27.690Z,-1.90
2023-12-12T18:10:54.887Z,-1.90
2023-12-12T18:13:23.924Z,-1.90
2023-12-12T18:15:51.106Z,-1.90
2023-12-12T18:18:18.754Z,-1.90
2023-12-12T18:20:49.488Z,-2.00
2023-12-12T18:23:16.654Z,-2.00
2023-12-12T18:25:44.165Z,-2.10
2023-12-12T18:28:11.420Z,-2.10
2023-12-12T18:30:48.295Z,-2.20
2023-12-12T18:33:16.129Z,-2.10
2023-12-12T18:35:43.666Z,-2.10
2023-12-12T18:38:10.836Z,-2.10
2023-12-12T18:40:38.171Z,-2.10
2023-12-12T18:43:08.470Z,-2.10
2023-12-12T18:45:37.099Z,-2.10
2023-12-12T18:48:04.669Z,-2.10
2023-12-12T18:50:31.834Z,-2.10
2023-12-12T18:52:59.168Z,-2.10
2023-12-12T18:55:26.248Z,-2.10
2023-12-12T18:57:53.296Z,-2.10
2023-12-12T19:00:20.739Z,-2.10
2023-12-12T19:02:47.851Z,-2.10
2023-12-12T19:05:16.995Z,-2.10
2023-12-12T19:07:45.245Z,-2.00
2023-12-12T19:10:13.371Z,-2.00
2023-12-12T19:12:42.290Z,-2.00
2023-12-12T19:15:11.193Z,-2.00
2023-12-12T19:17:41.568Z,-2.00
2023-12-12T19:20:12.766Z,-2.00
2023-12-12T19:22:40.565Z,-2.10
2023-12-12T19:25:08.903Z,-2.10
2023-12-12T19:27:36.665Z,-2.10
2023-12-12T19:30:05.503Z,-2.20
2023-12-12T19:32:37.606Z,-2.10
2023-12-12T19:35:07.847Z,-2.20
2023-12-12T19:37:36.557Z,-2.20
2023-12-12T19:40:07.729Z,-2.20
2023-12-12T19:42:35.314Z,-2.30
2023-12-12T19:45:04.072Z,-2.30
2023-12-12T19:47:31.679Z,-2.30
2023-12-12T19:50:02.115Z,-2.30
2023-12-12T19:52:32.534Z,-2.40
2023-12-12T19:54:59.863Z,-2.40
2023-12-12T19:57:26.804Z,-2.30
2023-12-12T19:59:53.922Z,-2.30
2023-12-12T20:02:20.922Z,-2.20
2023-12-12T20:04:47.977Z,-2.20
2023-12-12T20:07:15.293Z,-2.20
2023-12-12T20:09:42.998Z,-2.20
2023-12-12T20:12:11.037Z,-2.20
2023-12-12T20:14:38.799Z,-2.20
2023-12-12T20:17:06.456Z,-2.10
2023-12-12T20:19:34.093Z,-2.10
2023-12-12T20:22:01.382Z,-2.10
2023-12-12T20:24:29.400Z,-2.20
2023-12-12T20:26:56.676Z,-2.10
2023-12-12T20:29:24.008Z,-2.20
2023-12-12T20:31:51.436Z,-2.10
2023-12-12T20:34:18.630Z,-2.10
2023-12-12T20:36:46.113Z,-2.10
2023-12-12T20:39:13.761Z,-2.10
2023-12-12T20:41:42.799Z,-2.10
2023-12-12T20:44:10.103Z,-2.20
2023-12-12T20:46:41.276Z,-2.20
2023-12-12T20:49:08.917Z,-2.10
2023-12-12T20:51:38.382Z,-2.20
2023-12-12T20:54:05.700Z,-2.20
2023-12-12T20:56:34.995Z,-2.20
2023-12-12T20:59:02.173Z,-2.30
2023-12-12T21:01:29.374Z,-2.30
2023-12-12T21:03:56.514Z,-2.30
2023-12-12T21:06:23.653Z,-2.20
2023-12-12T21:08:50.766Z,-2.20
2023-12-12T21:11:20.621Z,-2.30
2023-12-12T21:13:47.697Z,-2.30
2023-12-12T21:16:22.525Z,-2.30
2023-12-12T21:18:49.883Z,-2.30
2023-12-12T21:21:17.021Z,-2.20
2023-12-12T21:23:44.100Z,-2.30
2023-12-12T21:26:11.173Z,-2.30
2023-12-12T21:28:38.205Z,-2.30
2023-12-12T21:31:07.013Z,-2.30
2023-12-12T21:33:34.720Z,-2.30
2023-12-12T21:36:01.862Z,-2.40
2023-12-12T21:38:29.827Z,-2.40
2023-12-12T21:40:57.124Z,-2.50
2023-12-12T21:43:24.238Z,-2.40
2023-12-12T21:45:52.433Z,-2.40
2023-12-12T21:48:19.702Z,-2.40
2023-12-12T21:50:46.736Z,-2.40
2023-12-12T21:53:13.897Z,-2.40
2023-12-12T21:55:41.217Z,-2.50
2023-12-12T21:58:08.401Z,-2.40
2023-12-12T22:00:35.485Z,-2.50
2023-12-12T22:03:03.577Z,-2.50
2023-12-12T22:05:30.598Z,-2.50
2023-12-12T22:07:57.748Z,-2.50
2023-12-12T22:10:24.950Z,-2.60
2023-12-12T22:12:51.954Z,-2.60
2023-12-12T22:15:18.970Z,-2.60
2023-12-12T22:17:46.225Z,-2.60
2023-12-12T22:20:13.560Z,-2.60
2023-12-12T22:22:40.984Z,-2.60
2023-12-12T22:25:08.548Z,-2.50
2023-12-12T22:27:36.247Z,-2.60
2023-12-12T22:30:03.365Z,-2.60
2023-12-12T22:32:30.447Z,-2.60
2023-12-12T22:34:57.577Z,-2.60
2023-12-12T22:37:24.614Z,-2.60
2023-12-12T22:39:51.696Z,-2.60
2023-12-12T22:42:18.726Z,-2.50
2023-12-12T22:44:45.755Z,-2.60
2023-12-12T22:47:13.219Z,-2.60
2023-12-12T22:49:40.265Z,-2.60
2023-12-12T22:52:07.643Z,-2.70
2023-12-12T22:54:34.966Z,-2.60
2023-12-12T22:57:02.055Z,-2.60
2023-12-12T22:59:29.084Z,-2.60
2023-12-12T23:01:56.933Z,-2.60
2023-12-12T23:04:24.867Z,-2.60
2023-12-12T23:06:53.551Z,-2.70
2023-12-12T23:09:23.637Z,-2.70
2023-12-12T23:11:50.767Z,-2.80
2023-12-12T23:14:17.776Z,-2.80
2023-12-12T23:16:44.895Z,-2.70
2023-12-12T23:19:12.225Z,-2.70
2023-12-12T23:21:39.193Z,-2.70
2023-12-12T23:24:06.496Z,-2.70
2023-12-12T23:26:33.420Z,-2.70
2023-12-12T23:29:00.436Z,-2.70
2023-12-12T23:31:27.446Z,-2.70
2023-12-12T23:33:54.485Z,-2.70
2023-12-12T23:36:21.534Z,-2.70
2023-12-12T23:38:48.556Z,-2.70
2023-12-12T23:41:15.543Z,-2.70
2023-12-12T23:43:42.637Z,-2.70
2023-12-12T23:46:10.401Z,-2.80
2023-12-12T23:48:37.427Z,-2.80
2023-12-12T23:51:04.558Z,-2.80
2023-12-12T23:53:34.645Z,-2.90
2023-12-12T23:56:02.388Z,-2.90
2023-12-12T23:58:29.690Z,-2.90
